sensor_id;sensor_type;location;lat;lon;timestamp;temperature;humidity
15707;DHT22;7953;54.302;10.128;2023-04-24T00:00:13;12.80;99.90
15707;DHT22;7953;54.302;10.128;2023-04-24T00:02:41;12.80;99.90
15707;DHT22;7953;54.302;10.128;2023-04-24T00:05:12;12.80;99.90
15707;DHT22;7953;54.302;10.128;2023-04-24T00:07:39;12.80;99.90
15707;DHT22;7953;54.302;10.128;2023-04-24T00:10:07;12.80;99.90
15707;DHT22;7953;54.302;10.128;2023-04-24T00:12:34;12.70;99.90
15707;DHT22;7953;54.302;10.128;2023-04-24T00:15:02;12.70;99.90
15707;DHT22;7953;54.302;10.128;2023-04-24T00:17:29;12.80;99.90
15707;DHT22;7953;54.302;10.128;2023-04-24T00:19:56;12.70;99.90
15707;DHT22;7953;54.302;10.128;2023-04-24T00:22:26;12.80;99.90
15707;DHT22;7953;54.302;10.128;2023-04-24T00:24:53;12.70;99.90
15707;DHT22;7953;54.302;10.128;2023-04-24T00:27:21;12.70;99.90
15707;DHT22;7953;54.302;10.128;2023-04-24T00:29:47;12.70;99.90
15707;DHT22;7953;54.302;10.128;2023-04-24T00:32:15;12.70;99.90
15707;DHT22;7953;54.302;10.128;2023-04-24T00:34:43;12.70;99.90
15707;DHT22;7953;54.302;10.128;2023-04-24T00:37:10;12.70;99.90
15707;DHT22;7953;54.302;10.128;2023-04-24T00:39:38;12.60;99.90
15707;DHT22;7953;54.302;10.128;2023-04-24T00:42:05;12.60;99.90
15707;DHT22;7953;54.302;10.128;2023-04-24T00:44:32;12.60;99.90
15707;DHT22;7953;54.302;10.128;2023-04-24T00:46:59;12.50;99.90
15707;DHT22;7953;54.302;10.128;2023-04-24T00:49:27;12.50;99.90
15707;DHT22;7953;54.302;10.128;2023-04-24T00:51:54;12.50;99.90
15707;DHT22;7953;54.302;10.128;2023-04-24T00:54:22;12.50;99.90
15707;DHT22;7953;54.302;10.128;2023-04-24T00:56:50;12.40;99.90
15707;DHT22;7953;54.302;10.128;2023-04-24T00:59:18;12.40;99.90
15707;DHT22;7953;54.302;10.128;2023-04-24T01:01:45;12.40;99.90
15707;DHT22;7953;54.302;10.128;2023-04-24T01:04:13;12.30;99.90
15707;DHT22;7953;54.302;10.128;2023-04-24T01:06:42;12.10;99.90
15707;DHT22;7953;54.302;10.128;2023-04-24T01:09:10;12.00;99.90
15707;DHT22;7953;54.302;10.128;2023-04-24T01:11:39;12.00;99.90
15707;DHT22;7953;54.302;10.128;2023-04-24T01:14:09;11.90;99.90
15707;DHT22;7953;54.302;10.128;2023-04-24T01:16:36;11.90;99.90
15707;DHT22;7953;54.302;10.128;2023-04-24T01:19:04;11.90;99.90
15707;DHT22;7953;54.302;10.128;2023-04-24T01:21:35;11.90;99.90
15707;DHT22;7953;54.302;10.128;2023-04-24T01:24:05;11.90;99.90
15707;DHT22;7953;54.302;10.128;2023-04-24T01:26:33;11.90;99.90
15707;DHT22;7953;54.302;10.128;2023-04-24T01:29:00;11.80;99.90
15707;DHT22;7953;54.302;10.128;2023-04-24T01:31:27;11.80;99.90
15707;DHT22;7953;54.302;10.128;2023-04-24T01:33:55;11.80;99.90
15707;DHT22;7953;54.302;10.128;2023-04-24T01:36:22;11.80;99.90
15707;DHT22;7953;54.302;10.128;2023-04-24T01:38:51;11.80;99.90
15707;DHT22;7953;54.302;10.128;2023-04-24T01:41:19;11.80;99.90
15707;DHT22;7953;54.302;10.128;2023-04-24T01:43:47;11.80;99.90
15707;DHT22;7953;54.302;10.128;2023-04-24T01:46:15;11.80;99.90
15707;DHT22;7953;54.302;10.128;2023-04-24T01:48:42;11.80;99.90
15707;DHT22;7953;54.302;10.128;2023-04-24T01:51:09;11.80;99.90
15707;DHT22;7953;54.302;10.128;2023-04-24T01:53:35;11.90;99.90
15707;DHT22;7953;54.302;10.128;2023-04-24T01:56:02;11.80;99.90
15707;DHT22;7953;54.302;10.128;2023-04-24T01:58:32;11.80;99.90
15707;DHT22;7953;54.302;10.128;2023-04-24T02:00:59;11.80;99.90
15707;DHT22;7953;54.302;10.128;2023-04-24T02:03:26;11.80;99.90
15707;DHT22;7953;54.302;10.128;2023-04-24T02:05:53;11.80;99.90
15707;DHT22;7953;54.302;10.128;2023-04-24T02:08:20;11.70;99.90
15707;DHT22;7953;54.302;10.128;2023-04-24T02:10:47;11.70;99.90
15707;DHT22;7953;54.302;10.128;2023-04-24T02:13:14;11.70;99.90
15707;DHT22;7953;54.302;10.128;2023-04-24T02:15:42;11.70;99.90
15707;DHT22;7953;54.302;10.128;2023-04-24T02:18:09;11.80;99.90
15707;DHT22;7953;54.302;10.128;2023-04-24T02:20:36;11.70;99.90
15707;DHT22;7953;54.302;10.128;2023-04-24T02:23:03;11.60;99.90
15707;DHT22;7953;54.302;10.128;2023-04-24T02:25:30;11.60;99.90
15707;DHT22;7953;54.302;10.128;2023-04-24T02:27:57;11.60;99.90
15707;DHT22;7953;54.302;10.128;2023-04-24T02:30:24;11.60;99.90
15707;DHT22;7953;54.302;10.128;2023-04-24T02:32:52;11.60;99.90
15707;DHT22;7953;54.302;10.128;2023-04-24T02:35:19;11.60;99.90
15707;DHT22;7953;54.302;10.128;2023-04-24T02:37:46;11.60;99.90
15707;DHT22;7953;54.302;10.128;2023-04-24T02:40:13;11.60;99.90
15707;DHT22;7953;54.302;10.128;2023-04-24T02:42:40;11.60;99.90
15707;DHT22;7953;54.302;10.128;2023-04-24T02:45:07;11.60;99.90
15707;DHT22;7953;54.302;10.128;2023-04-24T02:47:34;11.50;99.90
15707;DHT22;7953;54.302;10.128;2023-04-24T02:50:03;11.50;99.90
15707;DHT22;7953;54.302;10.128;2023-04-24T02:52:30;11.50;99.90
15707;DHT22;7953;54.302;10.128;2023-04-24T02:54:57;11.40;99.90
15707;DHT22;7953;54.302;10.128;2023-04-24T02:57:24;11.40;99.90
15707;DHT22;7953;54.302;10.128;2023-04-24T02:59:51;11.50;99.90
15707;DHT22;7953;54.302;10.128;2023-04-24T03:02:18;11.50;99.90
15707;DHT22;7953;54.302;10.128;2023-04-24T03:04:46;11.40;99.90
15707;DHT22;7953;54.302;10.128;2023-04-24T03:07:15;11.40;99.90
15707;DHT22;7953;54.302;10.128;2023-04-24T03:09:42;11.30;99.90
15707;DHT22;7953;54.302;10.128;2023-04-24T03:12:09;11.40;99.90
15707;DHT22;7953;54.302;10.128;2023-04-24T03:14:35;11.30;99.90
15707;DHT22;7953;54.302;10.128;2023-04-24T03:17:02;11.30;99.90
15707;DHT22;7953;54.302;10.128;2023-04-24T03:19:30;11.20;99.90
15707;DHT22;7953;54.302;10.128;2023-04-24T03:21:56;11.20;99.90
15707;DHT22;7953;54.302;10.128;2023-04-24T03:24:25;11.20;99.90
15707;DHT22;7953;54.302;10.128;2023-04-24T03:26:53;11.20;99.90
15707;DHT22;7953;54.302;10.128;2023-04-24T03:29:22;11.30;99.90
15707;DHT22;7953;54.302;10.128;2023-04-24T03:31:49;11.20;99.90
15707;DHT22;7953;54.302;10.128;2023-04-24T03:34:16;11.30;99.90
15707;DHT22;7953;54.302;10.128;2023-04-24T03:36:43;11.20;99.90
15707;DHT22;7953;54.302;10.128;2023-04-24T03:39:09;11.30;99.90
15707;DHT22;7953;54.302;10.128;2023-04-24T03:41:38;11.20;99.90
15707;DHT22;7953;54.302;10.128;2023-04-24T03:44:05;11.20;99.90
15707;DHT22;7953;54.302;10.128;2023-04-24T03:46:31;11.20;99.90
15707;DHT22;7953;54.302;10.128;2023-04-24T03:48:58;11.20;99.90
15707;DHT22;7953;54.302;10.128;2023-04-24T03:51:25;11.20;99.90
15707;DHT22;7953;54.302;10.128;2023-04-24T03:53:53;11.10;99.90
15707;DHT22;7953;54.302;10.128;2023-04-24T03:56:20;11.10;99.90
15707;DHT22;7953;54.302;10.128;2023-04-24T03:58:48;11.10;99.90
15707;DHT22;7953;54.302;10.128;2023-04-24T04:01:15;11.10;99.90
15707;DHT22;7953;54.302;10.128;2023-04-24T04:03:42;11.10;99.90
15707;DHT22;7953;54.302;10.128;2023-04-24T04:06:09;11.00;99.90
15707;DHT22;7953;54.302;10.128;2023-04-24T04:08:38;11.00;99.90
15707;DHT22;7953;54.302;10.128;2023-04-24T04:11:05;11.00;99.90
15707;DHT22;7953;54.302;10.128;2023-04-24T04:13:32;10.90;99.90
15707;DHT22;7953;54.302;10.128;2023-04-24T04:16:00;11.00;99.90
15707;DHT22;7953;54.302;10.128;2023-04-24T04:18:27;11.00;99.90
15707;DHT22;7953;54.302;10.128;2023-04-24T04:20:54;11.00;99.90
15707;DHT22;7953;54.302;10.128;2023-04-24T04:23:22;11.00;99.90
15707;DHT22;7953;54.302;10.128;2023-04-24T04:25:49;11.00;99.90
15707;DHT22;7953;54.302;10.128;2023-04-24T04:28:17;10.90;99.90
15707;DHT22;7953;54.302;10.128;2023-04-24T04:30:45;11.00;99.90
15707;DHT22;7953;54.302;10.128;2023-04-24T04:33:13;10.90;99.90
15707;DHT22;7953;54.302;10.128;2023-04-24T04:35:41;10.80;99.90
15707;DHT22;7953;54.302;10.128;2023-04-24T04:38:08;10.80;99.90
15707;DHT22;7953;54.302;10.128;2023-04-24T04:40:36;10.80;99.90
15707;DHT22;7953;54.302;10.128;2023-04-24T04:43:03;10.80;99.90
15707;DHT22;7953;54.302;10.128;2023-04-24T04:45:30;10.80;99.90
15707;DHT22;7953;54.302;10.128;2023-04-24T04:47:58;10.80;99.90
15707;DHT22;7953;54.302;10.128;2023-04-24T04:50:27;10.80;99.90
15707;DHT22;7953;54.302;10.128;2023-04-24T04:52:54;10.80;99.90
15707;DHT22;7953;54.302;10.128;2023-04-24T04:55:21;10.90;99.90
15707;DHT22;7953;54.302;10.128;2023-04-24T04:57:48;10.90;99.90
15707;DHT22;7953;54.302;10.128;2023-04-24T05:00:15;10.90;99.90
15707;DHT22;7953;54.302;10.128;2023-04-24T05:02:42;11.00;99.90
15707;DHT22;7953;54.302;10.128;2023-04-24T05:05:09;11.00;99.90
15707;DHT22;7953;54.302;10.128;2023-04-24T05:07:37;11.00;99.90
15707;DHT22;7953;54.302;10.128;2023-04-24T05:10:05;11.00;99.90
15707;DHT22;7953;54.302;10.128;2023-04-24T05:12:32;11.00;99.90
15707;DHT22;7953;54.302;10.128;2023-04-24T05:14:59;11.00;99.90
15707;DHT22;7953;54.302;10.128;2023-04-24T05:17:26;11.00;99.90
15707;DHT22;7953;54.302;10.128;2023-04-24T05:19:53;11.00;99.90
15707;DHT22;7953;54.302;10.128;2023-04-24T05:22:20;11.00;99.90
15707;DHT22;7953;54.302;10.128;2023-04-24T05:24:48;11.10;99.90
15707;DHT22;7953;54.302;10.128;2023-04-24T05:27:15;11.20;99.90
15707;DHT22;7953;54.302;10.128;2023-04-24T05:29:42;11.30;99.90
15707;DHT22;7953;54.302;10.128;2023-04-24T05:32:09;11.30;99.90
15707;DHT22;7953;54.302;10.128;2023-04-24T05:34:36;11.40;99.90
15707;DHT22;7953;54.302;10.128;2023-04-24T05:37:03;11.40;99.90
15707;DHT22;7953;54.302;10.128;2023-04-24T05:39:33;11.40;99.90
15707;DHT22;7953;54.302;10.128;2023-04-24T05:42:02;11.40;99.90
15707;DHT22;7953;54.302;10.128;2023-04-24T05:44:30;11.40;99.90
15707;DHT22;7953;54.302;10.128;2023-04-24T05:46:57;11.40;99.90
15707;DHT22;7953;54.302;10.128;2023-04-24T05:49:24;11.30;99.90
15707;DHT22;7953;54.302;10.128;2023-04-24T05:51:51;11.40;99.90
15707;DHT22;7953;54.302;10.128;2023-04-24T05:54:17;11.50;99.90
15707;DHT22;7953;54.302;10.128;2023-04-24T05:56:44;11.50;99.90
15707;DHT22;7953;54.302;10.128;2023-04-24T05:59:13;11.60;99.90
15707;DHT22;7953;54.302;10.128;2023-04-24T06:01:40;11.60;99.90
15707;DHT22;7953;54.302;10.128;2023-04-24T06:04:07;11.70;99.90
15707;DHT22;7953;54.302;10.128;2023-04-24T06:06:34;11.80;99.90
15707;DHT22;7953;54.302;10.128;2023-04-24T06:09:01;11.90;99.90
15707;DHT22;7953;54.302;10.128;2023-04-24T06:11:29;11.90;99.90
15707;DHT22;7953;54.302;10.128;2023-04-24T06:13:56;11.90;99.90
15707;DHT22;7953;54.302;10.128;2023-04-24T06:16:24;12.00;99.90
15707;DHT22;7953;54.302;10.128;2023-04-24T06:18:51;12.00;99.90
15707;DHT22;7953;54.302;10.128;2023-04-24T06:21:18;11.90;99.90
15707;DHT22;7953;54.302;10.128;2023-04-24T06:23:45;11.90;99.90
15707;DHT22;7953;54.302;10.128;2023-04-24T06:26:19;11.90;99.90
15707;DHT22;7953;54.302;10.128;2023-04-24T06:28:46;11.80;99.90
15707;DHT22;7953;54.302;10.128;2023-04-24T06:31:13;11.90;99.90
15707;DHT22;7953;54.302;10.128;2023-04-24T06:33:41;11.90;99.90
15707;DHT22;7953;54.302;10.128;2023-04-24T06:36:09;11.90;99.90
15707;DHT22;7953;54.302;10.128;2023-04-24T06:38:36;12.10;99.90
15707;DHT22;7953;54.302;10.128;2023-04-24T06:41:02;12.20;99.90
15707;DHT22;7953;54.302;10.128;2023-04-24T06:43:30;12.20;99.90
15707;DHT22;7953;54.302;10.128;2023-04-24T06:45:57;12.30;99.90
15707;DHT22;7953;54.302;10.128;2023-04-24T06:48:24;12.40;99.90
15707;DHT22;7953;54.302;10.128;2023-04-24T06:50:53;12.30;99.90
15707;DHT22;7953;54.302;10.128;2023-04-24T06:53:20;12.30;99.90
15707;DHT22;7953;54.302;10.128;2023-04-24T06:55:46;12.30;99.90
15707;DHT22;7953;54.302;10.128;2023-04-24T06:58:14;12.30;99.90
15707;DHT22;7953;54.302;10.128;2023-04-24T07:00:41;12.30;99.90
15707;DHT22;7953;54.302;10.128;2023-04-24T07:03:08;12.50;99.90
15707;DHT22;7953;54.302;10.128;2023-04-24T07:05:35;12.50;99.90
15707;DHT22;7953;54.302;10.128;2023-04-24T07:08:05;12.50;99.90
15707;DHT22;7953;54.302;10.128;2023-04-24T07:10:32;12.40;99.90
15707;DHT22;7953;54.302;10.128;2023-04-24T07:12:59;12.40;99.90
15707;DHT22;7953;54.302;10.128;2023-04-24T07:15:26;12.40;99.90
15707;DHT22;7953;54.302;10.128;2023-04-24T07:17:53;12.50;99.90
15707;DHT22;7953;54.302;10.128;2023-04-24T07:20:21;12.60;99.90
15707;DHT22;7953;54.302;10.128;2023-04-24T07:22:48;12.70;99.90
15707;DHT22;7953;54.302;10.128;2023-04-24T07:25:16;12.70;99.90
15707;DHT22;7953;54.302;10.128;2023-04-24T07:27:43;12.70;99.90
15707;DHT22;7953;54.302;10.128;2023-04-24T07:30:11;12.80;99.90
15707;DHT22;7953;54.302;10.128;2023-04-24T07:32:37;12.80;99.90
15707;DHT22;7953;54.302;10.128;2023-04-24T07:35:05;12.80;99.90
15707;DHT22;7953;54.302;10.128;2023-04-24T07:37:32;12.90;99.90
15707;DHT22;7953;54.302;10.128;2023-04-24T07:39:59;12.90;99.90
15707;DHT22;7953;54.302;10.128;2023-04-24T07:42:28;13.00;99.90
15707;DHT22;7953;54.302;10.128;2023-04-24T07:44:55;12.90;99.90
15707;DHT22;7953;54.302;10.128;2023-04-24T07:47:23;12.90;99.90
15707;DHT22;7953;54.302;10.128;2023-04-24T07:49:49;12.80;99.90
15707;DHT22;7953;54.302;10.128;2023-04-24T07:52:16;12.80;99.90
15707;DHT22;7953;54.302;10.128;2023-04-24T07:54:43;12.80;99.90
15707;DHT22;7953;54.302;10.128;2023-04-24T07:57:10;12.70;99.90
15707;DHT22;7953;54.302;10.128;2023-04-24T07:59:38;12.80;99.90
15707;DHT22;7953;54.302;10.128;2023-04-24T08:02:06;12.80;99.90
15707;DHT22;7953;54.302;10.128;2023-04-24T08:04:33;12.70;99.90
15707;DHT22;7953;54.302;10.128;2023-04-24T08:06:59;12.70;99.90
15707;DHT22;7953;54.302;10.128;2023-04-24T08:09:26;12.70;99.90
15707;DHT22;7953;54.302;10.128;2023-04-24T08:11:53;12.60;99.90
15707;DHT22;7953;54.302;10.128;2023-04-24T08:14:20;12.50;99.90
15707;DHT22;7953;54.302;10.128;2023-04-24T08:16:48;12.50;99.90
15707;DHT22;7953;54.302;10.128;2023-04-24T08:19:15;12.50;99.90
15707;DHT22;7953;54.302;10.128;2023-04-24T08:21:42;12.50;99.90
15707;DHT22;7953;54.302;10.128;2023-04-24T08:24:09;12.50;99.90
15707;DHT22;7953;54.302;10.128;2023-04-24T08:26:36;12.40;99.90
15707;DHT22;7953;54.302;10.128;2023-04-24T08:29:03;12.50;99.90
15707;DHT22;7953;54.302;10.128;2023-04-24T08:31:29;12.50;99.90
15707;DHT22;7953;54.302;10.128;2023-04-24T08:33:58;12.50;99.90
15707;DHT22;7953;54.302;10.128;2023-04-24T08:36:25;12.40;99.90
15707;DHT22;7953;54.302;10.128;2023-04-24T08:38:52;12.40;99.90
15707;DHT22;7953;54.302;10.128;2023-04-24T08:41:19;12.50;99.90
15707;DHT22;7953;54.302;10.128;2023-04-24T08:43:47;12.50;99.90
15707;DHT22;7953;54.302;10.128;2023-04-24T08:46:15;12.70;99.90
15707;DHT22;7953;54.302;10.128;2023-04-24T08:48:43;12.80;99.90
15707;DHT22;7953;54.302;10.128;2023-04-24T08:51:11;12.80;99.90
15707;DHT22;7953;54.302;10.128;2023-04-24T08:53:38;12.80;99.90
15707;DHT22;7953;54.302;10.128;2023-04-24T08:56:05;12.90;99.90
15707;DHT22;7953;54.302;10.128;2023-04-24T08:58:33;12.90;99.90
15707;DHT22;7953;54.302;10.128;2023-04-24T09:01:00;13.00;99.90
15707;DHT22;7953;54.302;10.128;2023-04-24T09:03:28;13.10;99.90
15707;DHT22;7953;54.302;10.128;2023-04-24T09:05:57;13.30;99.90
15707;DHT22;7953;54.302;10.128;2023-04-24T09:08:26;13.20;99.90
15707;DHT22;7953;54.302;10.128;2023-04-24T09:10:54;13.20;99.90
15707;DHT22;7953;54.302;10.128;2023-04-24T09:13:24;13.20;99.90
15707;DHT22;7953;54.302;10.128;2023-04-24T09:15:51;13.40;99.90
15707;DHT22;7953;54.302;10.128;2023-04-24T09:18:19;13.50;99.90
15707;DHT22;7953;54.302;10.128;2023-04-24T09:21:07;13.40;99.90
15707;DHT22;7953;54.302;10.128;2023-04-24T09:23:36;13.30;99.90
15707;DHT22;7953;54.302;10.128;2023-04-24T09:26:03;13.20;99.90
15707;DHT22;7953;54.302;10.128;2023-04-24T09:28:32;13.20;99.90
15707;DHT22;7953;54.302;10.128;2023-04-24T09:31:05;13.30;99.90
15707;DHT22;7953;54.302;10.128;2023-04-24T09:33:32;13.40;99.90
15707;DHT22;7953;54.302;10.128;2023-04-24T09:36:00;13.50;99.90
15707;DHT22;7953;54.302;10.128;2023-04-24T09:38:31;13.50;99.90
15707;DHT22;7953;54.302;10.128;2023-04-24T09:41:01;13.50;99.90
15707;DHT22;7953;54.302;10.128;2023-04-24T09:43:29;13.60;99.90
15707;DHT22;7953;54.302;10.128;2023-04-24T09:45:56;13.50;99.90
15707;DHT22;7953;54.302;10.128;2023-04-24T09:48:30;13.40;99.90
15707;DHT22;7953;54.302;10.128;2023-04-24T09:50:57;13.40;99.90
15707;DHT22;7953;54.302;10.128;2023-04-24T09:53:25;13.50;99.90
15707;DHT22;7953;54.302;10.128;2023-04-24T09:55:52;13.50;99.90
15707;DHT22;7953;54.302;10.128;2023-04-24T09:58:24;13.60;99.90
15707;DHT22;7953;54.302;10.128;2023-04-24T10:00:54;13.60;99.90
15707;DHT22;7953;54.302;10.128;2023-04-24T10:03:24;13.60;99.90
15707;DHT22;7953;54.302;10.128;2023-04-24T10:05:52;13.50;99.90
15707;DHT22;7953;54.302;10.128;2023-04-24T10:08:19;13.50;99.90
15707;DHT22;7953;54.302;10.128;2023-04-24T10:10:47;13.60;99.90
15707;DHT22;7953;54.302;10.128;2023-04-24T10:13:14;13.80;99.90
15707;DHT22;7953;54.302;10.128;2023-04-24T10:15:43;14.00;99.90
15707;DHT22;7953;54.302;10.128;2023-04-24T10:18:11;14.30;99.90
15707;DHT22;7953;54.302;10.128;2023-04-24T10:20:39;14.40;99.90
15707;DHT22;7953;54.302;10.128;2023-04-24T10:23:06;14.20;99.90
15707;DHT22;7953;54.302;10.128;2023-04-24T10:25:35;14.10;99.90
15707;DHT22;7953;54.302;10.128;2023-04-24T10:28:03;14.30;99.90
15707;DHT22;7953;54.302;10.128;2023-04-24T10:30:31;14.20;99.90
15707;DHT22;7953;54.302;10.128;2023-04-24T10:33:02;14.50;99.90
15707;DHT22;7953;54.302;10.128;2023-04-24T10:35:31;14.60;99.90
15707;DHT22;7953;54.302;10.128;2023-04-24T10:38:01;14.40;99.90
15707;DHT22;7953;54.302;10.128;2023-04-24T10:40:31;14.30;99.90
15707;DHT22;7953;54.302;10.128;2023-04-24T10:43:01;14.30;99.90
15707;DHT22;7953;54.302;10.128;2023-04-24T10:45:28;14.40;99.90
15707;DHT22;7953;54.302;10.128;2023-04-24T10:47:59;14.40;99.90
15707;DHT22;7953;54.302;10.128;2023-04-24T10:50:29;14.30;99.90
15707;DHT22;7953;54.302;10.128;2023-04-24T10:53:06;14.40;99.90
15707;DHT22;7953;54.302;10.128;2023-04-24T10:55:42;14.30;99.90
15707;DHT22;7953;54.302;10.128;2023-04-24T10:58:09;14.10;99.90
15707;DHT22;7953;54.302;10.128;2023-04-24T11:00:38;14.00;99.90
15707;DHT22;7953;54.302;10.128;2023-04-24T11:03:06;13.80;99.90
15707;DHT22;7953;54.302;10.128;2023-04-24T11:06:07;13.80;99.90
15707;DHT22;7953;54.302;10.128;2023-04-24T11:08:39;13.70;99.90
15707;DHT22;7953;54.302;10.128;2023-04-24T11:11:11;13.70;99.90
15707;DHT22;7953;54.302;10.128;2023-04-24T11:14:01;13.80;99.90
15707;DHT22;7953;54.302;10.128;2023-04-24T11:16:29;13.90;99.90
15707;DHT22;7953;54.302;10.128;2023-04-24T11:19:01;14.00;99.90
15707;DHT22;7953;54.302;10.128;2023-04-24T11:21:42;14.00;99.90
15707;DHT22;7953;54.302;10.128;2023-04-24T11:24:32;14.20;99.90
15707;DHT22;7953;54.302;10.128;2023-04-24T11:27:11;14.20;99.90
15707;DHT22;7953;54.302;10.128;2023-04-24T11:29:41;14.30;99.90
15707;DHT22;7953;54.302;10.128;2023-04-24T11:32:23;14.30;99.90
15707;DHT22;7953;54.302;10.128;2023-04-24T11:34:52;14.10;99.90
15707;DHT22;7953;54.302;10.128;2023-04-24T11:37:22;13.90;99.90
15707;DHT22;7953;54.302;10.128;2023-04-24T11:39:51;13.70;99.90
15707;DHT22;7953;54.302;10.128;2023-04-24T11:42:18;13.60;99.90
15707;DHT22;7953;54.302;10.128;2023-04-24T11:44:46;13.40;99.90
15707;DHT22;7953;54.302;10.128;2023-04-24T11:47:14;13.50;99.90
15707;DHT22;7953;54.302;10.128;2023-04-24T11:49:41;13.50;99.90
15707;DHT22;7953;54.302;10.128;2023-04-24T11:52:08;13.60;99.90
15707;DHT22;7953;54.302;10.128;2023-04-24T11:54:37;13.80;99.90
15707;DHT22;7953;54.302;10.128;2023-04-24T11:57:04;13.80;99.90
15707;DHT22;7953;54.302;10.128;2023-04-24T11:59:35;13.90;99.90
15707;DHT22;7953;54.302;10.128;2023-04-24T12:02:03;13.90;99.90
15707;DHT22;7953;54.302;10.128;2023-04-24T12:04:39;14.00;99.90
15707;DHT22;7953;54.302;10.128;2023-04-24T12:07:06;13.90;99.90
15707;DHT22;7953;54.302;10.128;2023-04-24T12:09:45;13.90;99.90
15707;DHT22;7953;54.302;10.128;2023-04-24T12:12:14;13.90;99.90
15707;DHT22;7953;54.302;10.128;2023-04-24T12:14:47;13.90;99.90
15707;DHT22;7953;54.302;10.128;2023-04-24T12:17:14;13.90;99.90
15707;DHT22;7953;54.302;10.128;2023-04-24T12:19:46;14.10;99.90
15707;DHT22;7953;54.302;10.128;2023-04-24T12:22:13;14.20;99.90
15707;DHT22;7953;54.302;10.128;2023-04-24T12:24:56;14.30;99.90
15707;DHT22;7953;54.302;10.128;2023-04-24T12:27:23;14.70;99.90
15707;DHT22;7953;54.302;10.128;2023-04-24T12:29:55;14.70;99.90
15707;DHT22;7953;54.302;10.128;2023-04-24T12:32:23;14.80;99.90
15707;DHT22;7953;54.302;10.128;2023-04-24T12:34:50;15.00;99.90
15707;DHT22;7953;54.302;10.128;2023-04-24T12:37:18;15.00;99.90
15707;DHT22;7953;54.302;10.128;2023-04-24T12:40:03;15.00;99.90
15707;DHT22;7953;54.302;10.128;2023-04-24T12:42:31;15.00;99.90
15707;DHT22;7953;54.302;10.128;2023-04-24T12:44:59;15.00;99.90
15707;DHT22;7953;54.302;10.128;2023-04-24T12:47:27;15.20;99.90
15707;DHT22;7953;54.302;10.128;2023-04-24T12:49:54;15.50;99.90
15707;DHT22;7953;54.302;10.128;2023-04-24T12:52:21;15.40;99.90
15707;DHT22;7953;54.302;10.128;2023-04-24T12:54:49;15.50;99.90
15707;DHT22;7953;54.302;10.128;2023-04-24T12:57:18;15.70;99.90
15707;DHT22;7953;54.302;10.128;2023-04-24T12:59:45;15.50;99.90
15707;DHT22;7953;54.302;10.128;2023-04-24T13:02:12;14.80;99.90
15707;DHT22;7953;54.302;10.128;2023-04-24T13:04:39;14.80;99.90
15707;DHT22;7953;54.302;10.128;2023-04-24T13:07:05;14.80;99.90
15707;DHT22;7953;54.302;10.128;2023-04-24T13:09:34;14.90;99.90
15707;DHT22;7953;54.302;10.128;2023-04-24T13:12:02;14.80;99.90
15707;DHT22;7953;54.302;10.128;2023-04-24T13:14:32;14.70;99.90
15707;DHT22;7953;54.302;10.128;2023-04-24T13:16:59;14.60;99.90
15707;DHT22;7953;54.302;10.128;2023-04-24T13:19:26;14.50;99.90
15707;DHT22;7953;54.302;10.128;2023-04-24T13:21:55;14.40;99.90
15707;DHT22;7953;54.302;10.128;2023-04-24T13:24:23;14.30;99.90
15707;DHT22;7953;54.302;10.128;2023-04-24T13:26:50;14.10;99.90
15707;DHT22;7953;54.302;10.128;2023-04-24T13:29:17;14.10;99.90
15707;DHT22;7953;54.302;10.128;2023-04-24T13:31:46;13.80;99.90
15707;DHT22;7953;54.302;10.128;2023-04-24T13:34:13;13.80;99.90
15707;DHT22;7953;54.302;10.128;2023-04-24T13:36:39;13.70;99.90
15707;DHT22;7953;54.302;10.128;2023-04-24T13:39:06;13.80;99.90
15707;DHT22;7953;54.302;10.128;2023-04-24T13:41:33;13.80;99.90
15707;DHT22;7953;54.302;10.128;2023-04-24T13:44:01;13.80;99.90
15707;DHT22;7953;54.302;10.128;2023-04-24T13:46:28;13.70;99.90
15707;DHT22;7953;54.302;10.128;2023-04-24T13:48:57;13.60;99.90
15707;DHT22;7953;54.302;10.128;2023-04-24T13:51:25;13.70;99.90
15707;DHT22;7953;54.302;10.128;2023-04-24T13:53:53;13.60;99.90
15707;DHT22;7953;54.302;10.128;2023-04-24T13:56:20;13.40;99.90
15707;DHT22;7953;54.302;10.128;2023-04-24T13:58:47;13.50;99.90
15707;DHT22;7953;54.302;10.128;2023-04-24T14:01:14;13.80;99.90
15707;DHT22;7953;54.302;10.128;2023-04-24T14:03:42;14.10;99.90
15707;DHT22;7953;54.302;10.128;2023-04-24T14:06:11;14.20;99.90
15707;DHT22;7953;54.302;10.128;2023-04-24T14:08:38;14.20;99.90
15707;DHT22;7953;54.302;10.128;2023-04-24T14:11:05;14.00;99.90
15707;DHT22;7953;54.302;10.128;2023-04-24T14:13:32;14.00;99.90
15707;DHT22;7953;54.302;10.128;2023-04-24T14:15:59;13.90;99.90
15707;DHT22;7953;54.302;10.128;2023-04-24T14:18:25;13.80;99.90
15707;DHT22;7953;54.302;10.128;2023-04-24T14:20:52;13.70;99.90
15707;DHT22;7953;54.302;10.128;2023-04-24T14:23:20;13.80;99.90
15707;DHT22;7953;54.302;10.128;2023-04-24T14:25:47;13.80;99.90
15707;DHT22;7953;54.302;10.128;2023-04-24T14:28:17;13.90;99.90
15707;DHT22;7953;54.302;10.128;2023-04-24T14:30:44;13.90;99.90
15707;DHT22;7953;54.302;10.128;2023-04-24T14:33:11;13.80;99.90
15707;DHT22;7953;54.302;10.128;2023-04-24T14:35:39;13.60;99.90
15707;DHT22;7953;54.302;10.128;2023-04-24T14:38:07;13.40;99.90
15707;DHT22;7953;54.302;10.128;2023-04-24T14:40:35;13.30;99.90
15707;DHT22;7953;54.302;10.128;2023-04-24T14:43:02;13.20;99.90
15707;DHT22;7953;54.302;10.128;2023-04-24T14:45:29;13.40;99.90
15707;DHT22;7953;54.302;10.128;2023-04-24T14:47:57;13.30;99.90
15707;DHT22;7953;54.302;10.128;2023-04-24T14:50:24;13.20;99.90
15707;DHT22;7953;54.302;10.128;2023-04-24T14:52:53;12.90;99.90
15707;DHT22;7953;54.302;10.128;2023-04-24T14:55:20;12.80;99.90
15707;DHT22;7953;54.302;10.128;2023-04-24T14:57:48;12.90;99.90
15707;DHT22;7953;54.302;10.128;2023-04-24T15:00:16;13.00;99.90
15707;DHT22;7953;54.302;10.128;2023-04-24T15:02:43;12.90;99.90
15707;DHT22;7953;54.302;10.128;2023-04-24T15:05:10;12.80;99.90
15707;DHT22;7953;54.302;10.128;2023-04-24T15:07:37;12.90;99.90
15707;DHT22;7953;54.302;10.128;2023-04-24T15:10:05;12.90;99.90
15707;DHT22;7953;54.302;10.128;2023-04-24T15:12:32;12.90;99.90
15707;DHT22;7953;54.302;10.128;2023-04-24T15:15:00;12.70;99.90
15707;DHT22;7953;54.302;10.128;2023-04-24T15:17:27;12.80;99.90
15707;DHT22;7953;54.302;10.128;2023-04-24T15:19:54;12.80;99.90
15707;DHT22;7953;54.302;10.128;2023-04-24T15:22:21;13.00;99.90
15707;DHT22;7953;54.302;10.128;2023-04-24T15:24:48;13.10;99.90
15707;DHT22;7953;54.302;10.128;2023-04-24T15:27:15;13.30;99.90
15707;DHT22;7953;54.302;10.128;2023-04-24T15:29:42;13.30;99.90
15707;DHT22;7953;54.302;10.128;2023-04-24T15:32:10;13.30;99.90
15707;DHT22;7953;54.302;10.128;2023-04-24T15:34:37;13.10;99.90